Cosco Kaohsiung — VREM3 — position and weather

sailwx.info

Track history (hours):
 
Tides and Currents Weather Stations Pressure Air Temp Water Temp Dewpoint Dewpoint Depression Visibility Wind Speed Wind Dir Waves Ship Positions

Cosco Kaohsiung

Last reported at 2015-Jul-22 17:27 UTC. Time now 2015-Jul-28 17:44 UTC.
Position N 48°55' W 127°07'.

Length 349 m; draft 11 m.

Type: Ship (hazmat cat A). MMSI: 477136800.

Date/timePositionNaut miles runAvg speedWind from/ knotsBaromVisibWave heightAir tempDewpointWater temp
2015-Jul-22 17:27N 48°55' W 127°07'1314.1
2015-Jul-22 16:33N 48°54' W 126°48'1414.4
2015-Jul-22 15:33N 48°47' W 126°28'1414.3
2015-Jul-22 14:33N 48°41' W 126°09'1514.6
2015-Jul-22 13:33N 48°34' W 125°50'1414.3
2015-Jul-22 12:33N 48°30' W 125°29'1514.5
2015-Jul-22 11:33N 48°31' W 125°07'6215.5
2015-Jul-22 07:33N 48°15' W 123°37'1312.5
2015-Jul-22 06:32N 48°09' W 123°21'1616.6
2015-Jul-22 05:33N 48°12' W 122°57'1715.6
2015-Jul-22 04:27N 48°01' W 122°37'1314.7
2015-Jul-22 03:34N 47°50' W 122°27'1312.9
2015-Jul-22 02:33N 47°37' W 122°24'3 2.9
2015-Jul-22 01:31N 47°35' W 122°21'0 0.0
2015-Jul-22 00:31N 47°35' W 122°21'0 0.0
2015-Jul-21 23:28N 47°35' W 122°21'0 0.0
2015-Jul-21 22:31N 47°35' W 122°21'0 0.0
2015-Jul-21 21:31N 47°35' W 122°21'0 0.0
2015-Jul-21 20:28N 47°35' W 122°21'0 0.0
2015-Jul-21 19:31N 47°35' W 122°21'0 0.0
2015-Jul-21 18:31N 47°35' W 122°21'0 0.0
2015-Jul-21 17:31N 47°35' W 122°21'0 0.0
2015-Jul-21 16:31N 47°35' W 122°21'0 0.0
2015-Jul-21 15:31N 47°35' W 122°21'0 0.0
2015-Jul-21 14:31N 47°35' W 122°21'0 0.0
2015-Jul-21 13:31N 47°35' W 122°21'0 0.0
2015-Jul-21 12:31N 47°35' W 122°21'0 0.0
2015-Jul-21 11:31N 47°35' W 122°21'0 0.0
2015-Jul-21 10:31N 47°35' W 122°21'0 0.0
2015-Jul-21 09:31N 47°35' W 122°21'0 0.0
2015-Jul-21 08:31N 47°35' W 122°21'0 0.0
2015-Jul-21 07:31N 47°35' W 122°21'0 0.0
2015-Jul-21 06:31N 47°35' W 122°21'0 0.0
2015-Jul-21 05:31N 47°35' W 122°21'0 0.0
2015-Jul-21 04:31N 47°35' W 122°21'0 0.0
2015-Jul-21 03:28N 47°35' W 122°21'0 0.0
2015-Jul-21 02:31N 47°35' W 122°21'0 0.0
2015-Jul-21 01:31N 47°35' W 122°21'0 0.0
2015-Jul-21 00:28N 47°35' W 122°21'2 2.5
2015-Jul-20 23:33N 47°37' W 122°23'7 6.8
2015-Jul-20 22:33N 47°43' W 122°27'1211.9
2015-Jul-20 21:33N 47°55' W 122°30'1111.2
2015-Jul-20 20:33N 48°04' W 122°39'1110.8
2015-Jul-20 19:32N 48°11' W 122°52'1413.1
2015-Jul-20 18:29N 48°11' W 123°12'1111.5
2015-Jul-20 17:33N 48°11' W 123°28'1312.0
2015-Jul-20 16:31N 48°13' W 123°47'1413.7
2015-Jul-20 15:31N 48°17' W 124°06'1414.8
2015-Jul-20 14:33N 48°23' W 124°26'1413.9
2015-Jul-20 13:33N 48°28' W 124°45'1212.5
2015-Jul-20 12:33N 48°23' W 125°03'1414.5
2015-Jul-20 11:33N 48°09' W 125°10'1514.4
2015-Jul-20 10:32N 47°55' W 125°17'1813.9
2015-Jul-20 09:15N 47°38' W 125°17'1014.1
2015-Jul-20 08:33N 47°28' W 125°17'1414.2
2015-Jul-20 07:33N 47°14' W 125°17'1414.0
2015-Jul-20 06:33N 46°60' W 125°16'1414.2
2015-Jul-20 05:33N 46°45' W 125°15'1414.1
2015-Jul-20 04:33N 46°31' W 125°14'1414.1
2015-Jul-20 03:33N 46°17' W 125°14'1414.0
2015-Jul-20 02:33N 46°03' W 125°13'1414.1
2015-Jul-20 01:33N 45°49' W 125°13'1414.2
2015-Jul-20 00:33N 45°35' W 125°12'1414.0
2015-Jul-19 23:33N 45°21' W 125°12'1414.2
2015-Jul-19 22:33N 45°07' W 125°11'1514.6
2015-Jul-19 21:33N 44°52' W 125°10'1514.7
2015-Jul-19 20:34N 44°38' W 125°10'1514.9
2015-Jul-19 19:33N 44°23' W 125°09'1414.3
2015-Jul-19 18:33N 44°08' W 125°09'1515.3
2015-Jul-19 17:33N 43°53' W 125°08'1615.5
2015-Jul-19 16:31N 43°37' W 125°07'1515.1
2015-Jul-19 15:33N 43°22' W 125°07'1514.7
2015-Jul-19 14:33N 43°08' W 125°07'5714.3
2015-Jul-19 10:33N 42°10' W 125°04'20414.5
2015-Jul-18 20:26N 38°51' W 124°07'1414.5
2015-Jul-18 19:27N 38°38' W 123°60'1314.6
2015-Jul-18 18:33N 38°26' W 123°53'1514.7
2015-Jul-18 17:33N 38°12' W 123°46'1515.5
2015-Jul-18 16:33N 37°58' W 123°38'1615.8
2015-Jul-18 15:33N 37°44' W 123°30'1616.0
2015-Jul-18 14:33N 37°29' W 123°22'1615.6
2015-Jul-18 13:33N 37°15' W 123°14'1615.6
2015-Jul-18 12:33N 37°00' W 123°06'1615.6
2015-Jul-18 11:33N 36°46' W 122°59'1514.9
2015-Jul-18 10:33N 36°32' W 122°51'1515.5
2015-Jul-18 09:33N 36°20' W 122°39'1515.4
2015-Jul-18 08:33N 36°08' W 122°27'1514.9
2015-Jul-18 07:33N 35°56' W 122°16'1515.0
2015-Jul-18 06:33N 35°44' W 122°05'1514.8
2015-Jul-18 05:33N 35°32' W 121°54'1515.3
2015-Jul-18 04:33N 35°20' W 121°42'1515.2
2015-Jul-18 03:33N 35°08' W 121°31'1515.0
2015-Jul-18 02:33N 34°56' W 121°20'1515.0
2015-Jul-18 01:33N 34°44' W 121°09'1514.8
2015-Jul-18 00:33N 34°33' W 120°58'6815.2
2015-Jul-17 20:06N 34°10' W 119°41'915.9
2015-Jul-17 19:33N 34°08' W 119°30'1616.0
2015-Jul-17 18:33N 34°03' W 119°12'1616.0
2015-Jul-17 17:33N 33°55' W 118°55'1313.4
2015-Jul-17 16:33N 33°48' W 118°41'10 9.8
2015-Jul-17 15:33N 33°43' W 118°31'1511.6
2015-Jul-17 14:17N 33°38' W 118°14'6 8.2
2015-Jul-17 13:33N 33°44' W 118°12'0 0.5
2015-Jul-17 12:32N 33°44' W 118°12'0 0.0
2015-Jul-17 11:32N 33°44' W 118°12'0 0.0
2015-Jul-17 10:29N 33°44' W 118°12'0 0.0
2015-Jul-17 09:11N 33°44' W 118°12'0 0.0
2015-Jul-17 08:17N 33°44' W 118°12'0 0.0
2015-Jul-17 07:32N 33°44' W 118°12'0 0.0
2015-Jul-17 06:32N 33°44' W 118°12'0 0.0
2015-Jul-17 05:32N 33°44' W 118°12'0 0.0
2015-Jul-17 04:32N 33°44' W 118°12'0 0.0
2015-Jul-17 03:29N 33°44' W 118°12'0 0.0
2015-Jul-17 02:32N 33°44' W 118°12'0 0.0
2015-Jul-17 01:26N 33°44' W 118°12'0 0.0
2015-Jul-17 00:29N 33°44' W 118°12'0 0.0
2015-Jul-16 23:29N 33°44' W 118°12'0 0.0
2015-Jul-16 21:32N 33°44' W 118°12'0 0.0
2015-Jul-16 20:32N 33°44' W 118°12'0 0.0
2015-Jul-16 19:32N 33°44' W 118°12'0 0.0
2015-Jul-16 18:26N 33°44' W 118°12'0 0.0
2015-Jul-16 17:32N 33°44' W 118°12'0 0.0
2015-Jul-16 14:29N 33°44' W 118°12'0 0.0
2015-Jul-16 13:20N 33°44' W 118°12'0 0.0
2015-Jul-16 12:32N 33°44' W 118°12'0 0.0
2015-Jul-16 11:26N 33°44' W 118°12'0 0.0
2015-Jul-16 10:29N 33°44' W 118°12'0 0.0
2015-Jul-16 09:29N 33°44' W 118°12'0 0.0
2015-Jul-16 08:32N 33°44' W 118°12'0 0.0
2015-Jul-16 07:08N 33°44' W 118°12'0 0.0
2015-Jul-16 06:23N 33°44' W 118°12'0 0.0
2015-Jul-16 04:32N 33°44' W 118°12'0 0.0
2015-Jul-16 03:32N 33°44' W 118°12'0 0.0
2015-Jul-16 02:17N 33°44' W 118°12'0 0.0
2015-Jul-16 01:29N 33°44' W 118°12'0 0.0
2015-Jul-16 00:32N 33°44' W 118°12'0 0.0
2015-Jul-15 23:32N 33°44' W 118°12'0 0.0
2015-Jul-15 22:32N 33°44' W 118°12'0 0.0
2015-Jul-15 21:32N 33°44' W 118°12'0 0.0
2015-Jul-15 20:32N 33°44' W 118°12'0 0.0
2015-Jul-15 19:32N 33°44' W 118°12'0 0.0
2015-Jul-15 18:32N 33°44' W 118°12'0 0.0
2015-Jul-15 17:32N 33°44' W 118°12'0 0.0
2015-Jul-15 16:32N 33°44' W 118°12'0 0.0
2015-Jul-15 15:32N 33°44' W 118°12'0 0.0
2015-Jul-15 14:32N 33°44' W 118°12'0 0.0
2015-Jul-15 13:29N 33°44' W 118°12'0 0.0
2015-Jul-15 12:32N 33°44' W 118°12'0 0.0
2015-Jul-15 11:32N 33°44' W 118°12'0 0.0
2015-Jul-15 10:32N 33°44' W 118°12'0 0.0
2015-Jul-15 09:32N 33°44' W 118°12'0 0.0
2015-Jul-15 08:32N 33°44' W 118°12'0 0.0
2015-Jul-15 07:32N 33°44' W 118°12'0 0.0
2015-Jul-15 05:17N 33°44' W 118°12'0 0.0
2015-Jul-15 04:32N 33°44' W 118°12'0 0.0
2015-Jul-15 03:32N 33°44' W 118°12'0 0.0
2015-Jul-15 02:32N 33°44' W 118°12'0 0.0
2015-Jul-15 01:23N 33°44' W 118°12'0 0.0
2015-Jul-15 00:32N 33°44' W 118°12'0 0.0
2015-Jul-14 23:32N 33°44' W 118°12'0 0.0
2015-Jul-14 22:29N 33°44' W 118°12'0 0.0
2015-Jul-14 21:32N 33°44' W 118°12'0 0.0
2015-Jul-14 20:32N 33°44' W 118°12'0 0.0
2015-Jul-14 19:32N 33°44' W 118°12'0 0.0
2015-Jul-14 18:32N 33°44' W 118°12'0 0.0
2015-Jul-14 17:32N 33°44' W 118°12'0 0.0
2015-Jul-14 16:29N 33°44' W 118°12'0 0.0
2015-Jul-14 15:29N 33°44' W 118°12'0 0.0
2015-Jul-14 14:32N 33°44' W 118°12'0 0.0
2015-Jul-14 13:32N 33°44' W 118°12'0 0.0
2015-Jul-14 12:32N 33°44' W 118°12'0 0.0
2015-Jul-14 11:32N 33°44' W 118°12'0 0.0
2015-Jul-14 10:32N 33°44' W 118°12'0 0.0
2015-Jul-14 09:32N 33°44' W 118°12'0 0.0
2015-Jul-14 08:32N 33°44' W 118°12'0 0.0
2015-Jul-14 07:32N 33°44' W 118°12'0 0.0
2015-Jul-14 06:32N 33°44' W 118°12'0 0.0
2015-Jul-14 05:32N 33°44' W 118°12'0 0.0
2015-Jul-14 04:32N 33°44' W 118°12'0 0.0
2015-Jul-14 03:32N 33°44' W 118°12'0 0.0
2015-Jul-14 02:32N 33°44' W 118°12'0 0.0
2015-Jul-14 01:29N 33°44' W 118°12'0 0.0
2015-Jul-14 00:32N 33°44' W 118°12'0 0.0
2015-Jul-13 23:32N 33°44' W 118°12'0 0.0
2015-Jul-13 22:32N 33°44' W 118°12'0 0.4
2015-Jul-13 21:33N 33°44' W 118°12'7 6.7
2015-Jul-13 20:33N 33°37' W 118°13'10 9.7
2015-Jul-13 19:33N 33°38' W 118°25'1211.7
2015-Jul-13 18:33N 33°44' W 118°37'1211.9
2015-Jul-13 17:33N 33°50' W 118°49'1512.0
2015-Jul-13 16:19N 33°57' W 119°05'1012.6
2015-Jul-13 15:32N 34°02' W 119°15'13613.6
2015-Jul-13 05:33N 34°57' W 121°46'1414.1
2015-Jul-13 04:33N 35°05' W 121°59'1514.3
2015-Jul-13 03:30N 35°15' W 122°14'2114.5
2015-Jul-13 02:05N 35°27' W 122°34'814.5
2015-Jul-13 01:32N 35°32' W 122°42'1414.1
2015-Jul-13 00:33N 35°40' W 122°55'1414.1
2015-Jul-12 23:33N 35°49' W 123°09'4 4.1
2015-Jul-12 22:31N 35°52' W 123°13'9 9.3
2015-Jul-12 21:33N 35°57' W 123°22'1615.3
2015-Jul-12 20:32N 36°07' W 123°37'  
Track history (hours):
 
Tides and Currents Weather Stations Pressure Air Temp Water Temp Dewpoint Dewpoint Depression Visibility Wind Speed Wind Dir Waves Ship Positions

Cosco Kaohsiung

Last reported at 2015-Jul-22 17:27 UTC. Time now 2015-Jul-28 17:44 UTC.
Position N 48°55' W 127°07'.

Length 349 m; draft 11 m.

Type: Ship (hazmat cat A). MMSI: 477136800.

Date/timePositionNaut miles runAvg speedWind from/ knotsBaromVisibWave heightAir tempDewpointWater temp
2015-Jul-22 17:27N 48°55' W 127°07'1314.1
2015-Jul-22 16:33N 48°54' W 126°48'1414.4
2015-Jul-22 15:33N 48°47' W 126°28'1414.3
2015-Jul-22 14:33N 48°41' W 126°09'1514.6
2015-Jul-22 13:33N 48°34' W 125°50'1414.3
2015-Jul-22 12:33N 48°30' W 125°29'1514.5
2015-Jul-22 11:33N 48°31' W 125°07'6215.5
2015-Jul-22 07:33N 48°15' W 123°37'1312.5
2015-Jul-22 06:32N 48°09' W 123°21'1616.6
2015-Jul-22 05:33N 48°12' W 122°57'1715.6
2015-Jul-22 04:27N 48°01' W 122°37'1314.7
2015-Jul-22 03:34N 47°50' W 122°27'1312.9
2015-Jul-22 02:33N 47°37' W 122°24'3 2.9
2015-Jul-22 01:31N 47°35' W 122°21'0 0.0
2015-Jul-22 00:31N 47°35' W 122°21'0 0.0
2015-Jul-21 23:28N 47°35' W 122°21'0 0.0
2015-Jul-21 22:31N 47°35' W 122°21'0 0.0
2015-Jul-21 21:31N 47°35' W 122°21'0 0.0
2015-Jul-21 20:28N 47°35' W 122°21'0 0.0
2015-Jul-21 19:31N 47°35' W 122°21'0 0.0
2015-Jul-21 18:31N 47°35' W 122°21'0 0.0
2015-Jul-21 17:31N 47°35' W 122°21'0 0.0
2015-Jul-21 16:31N 47°35' W 122°21'0 0.0
2015-Jul-21 15:31N 47°35' W 122°21'0 0.0
2015-Jul-21 14:31N 47°35' W 122°21'0 0.0
2015-Jul-21 13:31N 47°35' W 122°21'0 0.0
2015-Jul-21 12:31N 47°35' W 122°21'0 0.0
2015-Jul-21 11:31N 47°35' W 122°21'0 0.0
2015-Jul-21 10:31N 47°35' W 122°21'0 0.0
2015-Jul-21 09:31N 47°35' W 122°21'0 0.0
2015-Jul-21 08:31N 47°35' W 122°21'0 0.0
2015-Jul-21 07:31N 47°35' W 122°21'0 0.0
2015-Jul-21 06:31N 47°35' W 122°21'0 0.0
2015-Jul-21 05:31N 47°35' W 122°21'0 0.0
2015-Jul-21 04:31N 47°35' W 122°21'0 0.0
2015-Jul-21 03:28N 47°35' W 122°21'0 0.0
2015-Jul-21 02:31N 47°35' W 122°21'0 0.0
2015-Jul-21 01:31N 47°35' W 122°21'0 0.0
2015-Jul-21 00:28N 47°35' W 122°21'2 2.5
2015-Jul-20 23:33N 47°37' W 122°23'7 6.8
2015-Jul-20 22:33N 47°43' W 122°27'1211.9
2015-Jul-20 21:33N 47°55' W 122°30'1111.2
2015-Jul-20 20:33N 48°04' W 122°39'1110.8
2015-Jul-20 19:32N 48°11' W 122°52'1413.1
2015-Jul-20 18:29N 48°11' W 123°12'1111.5
2015-Jul-20 17:33N 48°11' W 123°28'1312.0
2015-Jul-20 16:31N 48°13' W 123°47'1413.7
2015-Jul-20 15:31N 48°17' W 124°06'1414.8
2015-Jul-20 14:33N 48°23' W 124°26'1413.9
2015-Jul-20 13:33N 48°28' W 124°45'1212.5
2015-Jul-20 12:33N 48°23' W 125°03'1414.5
2015-Jul-20 11:33N 48°09' W 125°10'1514.4
2015-Jul-20 10:32N 47°55' W 125°17'1813.9
2015-Jul-20 09:15N 47°38' W 125°17'1014.1
2015-Jul-20 08:33N 47°28' W 125°17'1414.2
2015-Jul-20 07:33N 47°14' W 125°17'1414.0
2015-Jul-20 06:33N 46°60' W 125°16'1414.2
2015-Jul-20 05:33N 46°45' W 125°15'1414.1
2015-Jul-20 04:33N 46°31' W 125°14'1414.1
2015-Jul-20 03:33N 46°17' W 125°14'1414.0
2015-Jul-20 02:33N 46°03' W 125°13'1414.1
2015-Jul-20 01:33N 45°49' W 125°13'1414.2
2015-Jul-20 00:33N 45°35' W 125°12'1414.0
2015-Jul-19 23:33N 45°21' W 125°12'1414.2
2015-Jul-19 22:33N 45°07' W 125°11'1514.6
2015-Jul-19 21:33N 44°52' W 125°10'1514.7
2015-Jul-19 20:34N 44°38' W 125°10'1514.9
2015-Jul-19 19:33N 44°23' W 125°09'1414.3
2015-Jul-19 18:33N 44°08' W 125°09'1515.3
2015-Jul-19 17:33N 43°53' W 125°08'1615.5
2015-Jul-19 16:31N 43°37' W 125°07'1515.1
2015-Jul-19 15:33N 43°22' W 125°07'1514.7
2015-Jul-19 14:33N 43°08' W 125°07'5714.3
2015-Jul-19 10:33N 42°10' W 125°04'20414.5
2015-Jul-18 20:26N 38°51' W 124°07'1414.5
2015-Jul-18 19:27N 38°38' W 123°60'1314.6
2015-Jul-18 18:33N 38°26' W 123°53'1514.7
2015-Jul-18 17:33N 38°12' W 123°46'1515.5
2015-Jul-18 16:33N 37°58' W 123°38'1615.8
2015-Jul-18 15:33N 37°44' W 123°30'1616.0
2015-Jul-18 14:33N 37°29' W 123°22'1615.6
2015-Jul-18 13:33N 37°15' W 123°14'1615.6
2015-Jul-18 12:33N 37°00' W 123°06'1615.6
2015-Jul-18 11:33N 36°46' W 122°59'1514.9
2015-Jul-18 10:33N 36°32' W 122°51'1515.5
2015-Jul-18 09:33N 36°20' W 122°39'1515.4
2015-Jul-18 08:33N 36°08' W 122°27'1514.9
2015-Jul-18 07:33N 35°56' W 122°16'1515.0
2015-Jul-18 06:33N 35°44' W 122°05'1514.8
2015-Jul-18 05:33N 35°32' W 121°54'1515.3
2015-Jul-18 04:33N 35°20' W 121°42'1515.2
2015-Jul-18 03:33N 35°08' W 121°31'1515.0
2015-Jul-18 02:33N 34°56' W 121°20'1515.0
2015-Jul-18 01:33N 34°44' W 121°09'1514.8
2015-Jul-18 00:33N 34°33' W 120°58'6815.2
2015-Jul-17 20:06N 34°10' W 119°41'915.9
2015-Jul-17 19:33N 34°08' W 119°30'1616.0
2015-Jul-17 18:33N 34°03' W 119°12'1616.0
2015-Jul-17 17:33N 33°55' W 118°55'1313.4
2015-Jul-17 16:33N 33°48' W 118°41'10 9.8
2015-Jul-17 15:33N 33°43' W 118°31'1511.6
2015-Jul-17 14:17N 33°38' W 118°14'6 8.2
2015-Jul-17 13:33N 33°44' W 118°12'0 0.5
2015-Jul-17 12:32N 33°44' W 118°12'0 0.0
2015-Jul-17 11:32N 33°44' W 118°12'0 0.0
2015-Jul-17 10:29N 33°44' W 118°12'0 0.0
2015-Jul-17 09:11N 33°44' W 118°12'0 0.0
2015-Jul-17 08:17N 33°44' W 118°12'0 0.0
2015-Jul-17 07:32N 33°44' W 118°12'0 0.0
2015-Jul-17 06:32N 33°44' W 118°12'0 0.0
2015-Jul-17 05:32N 33°44' W 118°12'0 0.0
2015-Jul-17 04:32N 33°44' W 118°12'0 0.0
2015-Jul-17 03:29N 33°44' W 118°12'0 0.0
2015-Jul-17 02:32N 33°44' W 118°12'0 0.0
2015-Jul-17 01:26N 33°44' W 118°12'0 0.0
2015-Jul-17 00:29N 33°44' W 118°12'0 0.0
2015-Jul-16 23:29N 33°44' W 118°12'0 0.0
2015-Jul-16 21:32N 33°44' W 118°12'0 0.0
2015-Jul-16 20:32N 33°44' W 118°12'0 0.0
2015-Jul-16 19:32N 33°44' W 118°12'0 0.0
2015-Jul-16 18:26N 33°44' W 118°12'0 0.0
2015-Jul-16 17:32N 33°44' W 118°12'0 0.0
2015-Jul-16 14:29N 33°44' W 118°12'0 0.0
2015-Jul-16 13:20N 33°44' W 118°12'0 0.0
2015-Jul-16 12:32N 33°44' W 118°12'0 0.0
2015-Jul-16 11:26N 33°44' W 118°12'0 0.0
2015-Jul-16 10:29N 33°44' W 118°12'0 0.0
2015-Jul-16 09:29N 33°44' W 118°12'0 0.0
2015-Jul-16 08:32N 33°44' W 118°12'0 0.0
2015-Jul-16 07:08N 33°44' W 118°12'0 0.0
2015-Jul-16 06:23N 33°44' W 118°12'0 0.0
2015-Jul-16 04:32N 33°44' W 118°12'0 0.0
2015-Jul-16 03:32N 33°44' W 118°12'0 0.0
2015-Jul-16 02:17N 33°44' W 118°12'0 0.0
2015-Jul-16 01:29N 33°44' W 118°12'0 0.0
2015-Jul-16 00:32N 33°44' W 118°12'0 0.0
2015-Jul-15 23:32N 33°44' W 118°12'0 0.0
2015-Jul-15 22:32N 33°44' W 118°12'0 0.0
2015-Jul-15 21:32N 33°44' W 118°12'0 0.0
2015-Jul-15 20:32N 33°44' W 118°12'0 0.0
2015-Jul-15 19:32N 33°44' W 118°12'0 0.0
2015-Jul-15 18:32N 33°44' W 118°12'0 0.0
2015-Jul-15 17:32N 33°44' W 118°12'0 0.0
2015-Jul-15 16:32N 33°44' W 118°12'0 0.0
2015-Jul-15 15:32N 33°44' W 118°12'0 0.0
2015-Jul-15 14:32N 33°44' W 118°12'0 0.0
2015-Jul-15 13:29N 33°44' W 118°12'0 0.0
2015-Jul-15 12:32N 33°44' W 118°12'0 0.0
2015-Jul-15 11:32N 33°44' W 118°12'0 0.0
2015-Jul-15 10:32N 33°44' W 118°12'0 0.0
2015-Jul-15 09:32N 33°44' W 118°12'0 0.0
2015-Jul-15 08:32N 33°44' W 118°12'0 0.0
2015-Jul-15 07:32N 33°44' W 118°12'0 0.0
2015-Jul-15 05:17N 33°44' W 118°12'0 0.0
2015-Jul-15 04:32N 33°44' W 118°12'0 0.0
2015-Jul-15 03:32N 33°44' W 118°12'0 0.0
2015-Jul-15 02:32N 33°44' W 118°12'0 0.0
2015-Jul-15 01:23N 33°44' W 118°12'0 0.0
2015-Jul-15 00:32N 33°44' W 118°12'0 0.0
2015-Jul-14 23:32N 33°44' W 118°12'0 0.0
2015-Jul-14 22:29N 33°44' W 118°12'0 0.0
2015-Jul-14 21:32N 33°44' W 118°12'0 0.0
2015-Jul-14 20:32N 33°44' W 118°12'0 0.0
2015-Jul-14 19:32N 33°44' W 118°12'0 0.0
2015-Jul-14 18:32N 33°44' W 118°12'0 0.0
2015-Jul-14 17:32N 33°44' W 118°12'0 0.0
2015-Jul-14 16:29N 33°44' W 118°12'0 0.0
2015-Jul-14 15:29N 33°44' W 118°12'0 0.0
2015-Jul-14 14:32N 33°44' W 118°12'0 0.0
2015-Jul-14 13:32N 33°44' W 118°12'0 0.0
2015-Jul-14 12:32N 33°44' W 118°12'0 0.0
2015-Jul-14 11:32N 33°44' W 118°12'0 0.0
2015-Jul-14 10:32N 33°44' W 118°12'0 0.0
2015-Jul-14 09:32N 33°44' W 118°12'0 0.0
2015-Jul-14 08:32N 33°44' W 118°12'0 0.0
2015-Jul-14 07:32N 33°44' W 118°12'0 0.0
2015-Jul-14 06:32N 33°44' W 118°12'0 0.0
2015-Jul-14 05:32N 33°44' W 118°12'0 0.0
2015-Jul-14 04:32N 33°44' W 118°12'0 0.0
2015-Jul-14 03:32N 33°44' W 118°12'0 0.0
2015-Jul-14 02:32N 33°44' W 118°12'0 0.0
2015-Jul-14 01:29N 33°44' W 118°12'0 0.0
2015-Jul-14 00:32N 33°44' W 118°12'0 0.0
2015-Jul-13 23:32N 33°44' W 118°12'0 0.0
2015-Jul-13 22:32N 33°44' W 118°12'0 0.4
2015-Jul-13 21:33N 33°44' W 118°12'7 6.7
2015-Jul-13 20:33N 33°37' W 118°13'10 9.7
2015-Jul-13 19:33N 33°38' W 118°25'1211.7
2015-Jul-13 18:33N 33°44' W 118°37'1211.9
2015-Jul-13 17:33N 33°50' W 118°49'1512.0
2015-Jul-13 16:19N 33°57' W 119°05'1012.6
2015-Jul-13 15:32N 34°02' W 119°15'13613.6
2015-Jul-13 05:33N 34°57' W 121°46'1414.1
2015-Jul-13 04:33N 35°05' W 121°59'1514.3
2015-Jul-13 03:30N 35°15' W 122°14'2114.5
2015-Jul-13 02:05N 35°27' W 122°34'814.5
2015-Jul-13 01:32N 35°32' W 122°42'1414.1
2015-Jul-13 00:33N 35°40' W 122°55'1414.1
2015-Jul-12 23:33N 35°49' W 123°09'4 4.1
2015-Jul-12 22:31N 35°52' W 123°13'9 9.3
2015-Jul-12 21:33N 35°57' W 123°22'1615.3
2015-Jul-12 20:32N 36°07' W 123°37'  

Dump ship's entire track history